Time;durP1;ratioP1;P1;durP2;ratioP2;P2;SDS_P1;SDS_P2;PMS_P1;PMS_P2;Temp;Humidity;BMP_temperature;BMP_pressure;BME280_temperature;BME280_humidity;BME280_pressure;Samples;Min_cycle;Max_cycle;Signal;HPM_P1;HPM_P2
2022/08/16 00:00:48;;;;;;;51.72;5.70;;;22.20;80.90;;;;;;4985372;28;20034;-61
2022/08/16 00:03:13;;;;;;;28.55;4.60;;;22.20;80.90;;;;;;5015635;28;20057;-60
2022/08/16 00:05:39;;;;;;;27.20;4.10;;;22.20;80.80;;;;;;5002027;28;20485;-60
2022/08/16 00:08:04;;;;;;;15.30;3.75;;;22.20;80.80;;;;;;5002039;28;20042;-60
2022/08/16 00:10:32;;;;;;;17.35;3.92;;;22.20;80.80;;;;;;5004067;28;20050;-61
2022/08/16 00:12:58;;;;;;;14.30;3.40;;;22.20;80.80;;;;;;4999567;28;20026;-60
2022/08/16 00:15:26;;;;;;;13.02;3.25;;;22.10;80.80;;;;;;4999663;28;20044;-61
2022/08/16 00:17:52;;;;;;;13.77;3.10;;;22.10;80.80;;;;;;5000146;28;20061;-60
2022/08/16 00:20:17;;;;;;;12.88;3.50;;;22.20;80.90;;;;;;4999673;28;23254;-61
2022/08/16 00:22:43;;;;;;;10.18;2.78;;;22.10;81.10;;;;;;5001791;28;20118;-60
2022/08/16 00:25:12;;;;;;;15.05;3.42;;;22.10;81.30;;;;;;4985327;28;20057;-61
2022/08/16 00:27:38;;;;;;;9.93;2.97;;;22.10;81.60;;;;;;4982453;28;20030;-60
2022/08/16 00:30:04;;;;;;;10.73;2.70;;;22.10;81.40;;;;;;4984531;28;20455;-61
2022/08/16 00:32:30;;;;;;;12.20;3.08;;;22.10;81.40;;;;;;5016335;28;20026;-60
2022/08/16 00:34:55;;;;;;;8.82;2.70;;;22.10;81.50;;;;;;5001000;28;20492;-61
2022/08/16 00:37:22;;;;;;;14.25;3.47;;;22.00;81.40;;;;;;4969329;28;20457;-61
2022/08/16 00:39:48;;;;;;;10.00;2.95;;;22.00;81.40;;;;;;4984824;28;20042;-60
2022/08/16 00:42:14;;;;;;;12.50;2.67;;;22.00;81.70;;;;;;5000396;28;20044;-61
2022/08/16 00:44:39;;;;;;;7.68;2.42;;;22.00;81.60;;;;;;4983988;28;20040;-60
2022/08/16 00:47:07;;;;;;;11.40;3.00;;;22.00;81.60;;;;;;5016397;28;20026;-61
2022/08/16 00:49:33;;;;;;;10.38;2.53;;;22.00;81.60;;;;;;4999856;28;20041;-60
2022/08/16 00:51:58;;;;;;;18.88;3.22;;;21.90;81.50;;;;;;4998581;28;20034;-61
2022/08/16 00:54:26;;;;;;;4.28;2.25;;;21.90;81.60;;;;;;4999590;28;20054;-61
2022/08/16 00:56:52;;;;;;;8.98;2.63;;;21.90;81.70;;;;;;4999061;28;20062;-60
2022/08/16 00:59:22;;;;;;;12.00;2.15;;;22.00;81.80;;;;;;4983328;28;20628;-60
2022/08/16 01:01:47;;;;;;;8.95;2.55;;;21.90;81.80;;;;;;5001240;28;20033;-60
2022/08/16 01:04:14;;;;;;;10.52;2.45;;;21.90;81.90;;;;;;5014376;28;20532;-60
2022/08/16 01:06:40;;;;;;;6.72;2.15;;;21.90;81.90;;;;;;4980707;28;20030;-60
2022/08/16 01:09:05;;;;;;;9.02;2.38;;;21.90;81.80;;;;;;4966280;28;20037;-61
2022/08/16 01:11:32;;;;;;;4.07;2.10;;;21.90;81.80;;;;;;4999270;28;20041;-61
2022/08/16 01:14:02;;;;;;;5.80;1.73;;;21.90;81.80;;;;;;5000215;28;20034;-61
2022/08/16 01:16:27;;;;;;;4.20;2.38;;;21.80;81.80;;;;;;5016279;28;20041;-61
2022/08/16 01:19:00;;;;;;;11.07;2.25;;;21.80;81.90;;;;;;4997023;28;20535;-61
2022/08/16 01:21:56;;;;;;;7.10;2.40;;;21.80;81.90;;;;;;4982016;28;20046;-61
2022/08/16 01:24:37;;;;;;;6.05;2.65;;;21.80;82.00;;;;;;4997705;28;20038;-61
2022/08/16 01:27:06;;;;;;;5.80;2.72;;;21.80;82.00;;;;;;4969464;28;20026;-60
2022/08/16 01:29:38;;;;;;;6.43;2.60;;;21.80;82.00;;;;;;5017277;28;20033;-60
2022/08/16 01:32:03;;;;;;;6.15;2.22;;;21.70;81.90;;;;;;4998649;28;20026;-61
2022/08/16 01:34:30;;;;;;;6.38;2.60;;;21.70;82.00;;;;;;4999216;28;20610;-60
2022/08/16 01:37:03;;;;;;;9.23;3.17;;;21.80;82.10;;;;;;4998395;28;20026;-60
2022/08/16 01:39:28;;;;;;;6.13;3.90;;;21.80;82.10;;;;;;4982156;28;20037;-60
2022/08/16 01:41:54;;;;;;;5.10;3.88;;;21.80;82.10;;;;;;5000822;28;20398;-60
2022/08/16 01:44:19;;;;;;;7.72;3.67;;;21.80;82.00;;;;;;5001499;28;20025;-59
2022/08/16 01:46:46;;;;;;;7.40;3.20;;;21.70;82.30;;;;;;4997757;28;20469;-60
2022/08/16 01:49:35;;;;;;;7.72;3.53;;;21.80;82.10;;;;;;4998830;28;20038;-60
2022/08/16 01:52:09;;;;;;;5.65;3.22;;;21.70;82.00;;;;;;4998878;28;20699;-60
2022/08/16 01:54:35;;;;;;;5.38;3.00;;;21.70;82.10;;;;;;5015227;28;20065;-60
2022/08/16 01:57:00;;;;;;;6.30;3.35;;;21.60;82.10;;;;;;4999406;28;20132;-60
2022/08/16 01:59:26;;;;;;;3.22;2.72;;;21.70;82.20;;;;;;4999505;28;20054;-62
2022/08/16 02:01:52;;;;;;;3.95;3.08;;;21.70;82.20;;;;;;4997099;28;20053;-60
2022/08/16 02:04:18;;;;;;;5.82;3.53;;;21.60;82.20;;;;;;4998569;28;20125;-60
2022/08/16 02:06:44;;;;;;;7.40;2.97;;;21.60;82.20;;;;;;4999560;28;20037;-60
2022/08/16 02:09:09;;;;;;;6.15;3.17;;;21.60;82.30;;;;;;4999267;28;20034;-60
2022/08/16 02:11:35;;;;;;;8.40;2.92;;;21.60;82.20;;;;;;4998666;28;20087;-60
2022/08/16 02:14:01;;;;;;;7.07;2.97;;;21.60;82.30;;;;;;4997954;28;20041;-60
2022/08/16 02:16:26;;;;;;;3.83;2.80;;;21.60;82.30;;;;;;4982565;28;21440;-60
2022/08/16 02:18:52;;;;;;;6.53;3.03;;;21.60;82.40;;;;;;5002873;28;20034;-60
2022/08/16 02:21:18;;;;;;;5.50;3.00;;;21.50;82.30;;;;;;5003471;28;20021;-60
2022/08/16 02:23:43;;;;;;;8.00;3.83;;;21.50;82.40;;;;;;4984690;28;20967;-60
2022/08/16 02:26:09;;;;;;;8.63;4.68;;;21.50;82.40;;;;;;5001780;28;20557;-60
2022/08/16 02:28:35;;;;;;;7.75;4.75;;;21.60;82.50;;;;;;5002475;28;20073;-59
2022/08/16 02:31:03;;;;;;;6.13;3.85;;;21.50;82.40;;;;;;4987402;28;20109;-60
2022/08/16 02:33:30;;;;;;;16.33;4.28;;;21.50;82.50;;;;;;5001556;28;20025;-60
2022/08/16 02:35:55;;;;;;;6.00;3.65;;;21.50;82.40;;;;;;5001547;28;20021;-60
2022/08/16 02:38:21;;;;;;;8.63;4.10;;;21.50;82.40;;;;;;4999587;28;20057;-61
2022/08/16 02:40:47;;;;;;;6.03;3.60;;;21.40;82.40;;;;;;4985816;28;20053;-59
2022/08/16 02:43:12;;;;;;;6.32;3.53;;;21.40;82.40;;;;;;5000569;28;20034;-62
2022/08/16 02:45:38;;;;;;;10.52;3.20;;;21.40;82.30;;;;;;5000241;28;20402;-60
2022/08/16 02:48:04;;;;;;;8.07;3.67;;;21.40;82.30;;;;;;5002032;28;20036;-61
2022/08/16 02:50:29;;;;;;;4.15;3.33;;;21.40;82.40;;;;;;5002232;28;20507;-61
2022/08/16 02:52:55;;;;;;;7.60;3.20;;;21.40;82.40;;;;;;4999954;28;20044;-61
2022/08/16 02:55:20;;;;;;;6.03;3.20;;;21.40;82.30;;;;;;5001223;28;20136;-61
2022/08/16 02:57:46;;;;;;;7.95;3.47;;;21.40;82.30;;;;;;4999502;28;20029;-60
2022/08/16 03:00:12;;;;;;;5.13;3.10;;;21.40;82.40;;;;;;5003459;28;20029;-61
2022/08/16 03:02:39;;;;;;;10.70;3.38;;;21.30;82.30;;;;;;5001643;28;20037;-60
2022/08/16 03:05:05;;;;;;;4.75;2.90;;;21.30;82.40;;;;;;5000867;28;20034;-61
2022/08/16 03:07:30;;;;;;;5.10;3.08;;;21.30;82.40;;;;;;4997582;28;20042;-60
2022/08/16 03:09:56;;;;;;;5.53;2.97;;;21.30;82.50;;;;;;5003914;28;20083;-61
2022/08/16 03:12:22;;;;;;;4.85;3.00;;;21.20;82.50;;;;;;4984966;28;20022;-60
2022/08/16 03:14:47;;;;;;;7.80;3.65;;;21.20;82.50;;;;;;5002923;28;20037;-62
2022/08/16 03:17:13;;;;;;;6.28;3.65;;;21.30;82.40;;;;;;5002043;28;20042;-60
2022/08/16 03:19:38;;;;;;;8.30;4.32;;;21.30;82.60;;;;;;4997987;28;20129;-60
2022/08/16 03:22:04;;;;;;;4.18;3.22;;;21.30;82.60;;;;;;4983980;28;20044;-60
2022/08/16 03:24:29;;;;;;;5.60;3.22;;;21.20;82.50;;;;;;5002788;28;20153;-61
2022/08/16 03:26:57;;;;;;;6.35;3.15;;;21.20;82.50;;;;;;5001582;28;20124;-60
2022/08/16 03:29:23;;;;;;;5.05;3.45;;;21.20;82.60;;;;;;4999874;28;20454;-61
2022/08/16 03:31:50;;;;;;;5.68;3.17;;;21.20;82.60;;;;;;5001157;28;21814;-60
2022/08/16 03:34:15;;;;;;;4.15;3.22;;;21.20;82.60;;;;;;5001481;28;20030;-60
2022/08/16 03:36:41;;;;;;;3.30;2.97;;;21.20;82.60;;;;;;5003715;28;20045;-61
2022/08/16 03:39:06;;;;;;;4.28;3.00;;;21.10;82.60;;;;;;5001822;28;20092;-60
2022/08/16 03:41:32;;;;;;;3.53;2.50;;;21.10;82.50;;;;;;5002092;28;20165;-61
2022/08/16 03:43:57;;;;;;;3.35;2.60;;;21.10;82.50;;;;;;5001906;28;20112;-60
2022/08/16 03:46:23;;;;;;;5.07;2.95;;;21.10;82.60;;;;;;5003558;28;20428;-61
2022/08/16 03:48:48;;;;;;;8.00;3.00;;;21.10;82.60;;;;;;4999416;28;20040;-61
2022/08/16 03:51:14;;;;;;;5.53;3.33;;;21.10;82.70;;;;;;5000325;28;20064;-60
2022/08/16 03:53:40;;;;;;;3.33;2.72;;;21.10;82.70;;;;;;5001621;28;21554;-61
2022/08/16 03:56:06;;;;;;;5.30;2.72;;;21.10;82.70;;;;;;4999398;28;20639;-60
2022/08/16 03:58:32;;;;;;;3.03;2.60;;;21.00;82.70;;;;;;5016340;28;20125;-61
2022/08/16 04:00:58;;;;;;;3.45;2.80;;;21.00;82.70;;;;;;5000598;28;20045;-60
2022/08/16 04:03:23;;;;;;;4.20;3.15;;;21.00;82.70;;;;;;4999978;28;20104;-60
2022/08/16 04:05:50;;;;;;;4.05;2.65;;;21.00;82.70;;;;;;5001016;28;20470;-60
2022/08/16 04:08:16;;;;;;;3.72;2.50;;;21.00;82.80;;;;;;5000479;28;20015;-61
2022/08/16 04:10:41;;;;;;;6.00;3.45;;;20.90;82.80;;;;;;4999257;28;20473;-60
2022/08/16 04:13:07;;;;;;;4.65;3.65;;;21.00;82.90;;;;;;4999551;28;20050;-61
2022/08/16 04:15:32;;;;;;;8.05;3.58;;;20.90;82.90;;;;;;5002409;28;20041;-60
2022/08/16 04:18:00;;;;;;;3.50;3.15;;;21.00;82.90;;;;;;4998652;28;20030;-60
2022/08/16 04:20:26;;;;;;;4.30;3.10;;;20.90;82.90;;;;;;4999178;28;20561;-60
2022/08/16 04:22:52;;;;;;;5.03;3.35;;;20.90;83.00;;;;;;4999155;28;20048;-61
2022/08/16 04:25:17;;;;;;;3.63;3.10;;;20.90;83.00;;;;;;4999993;28;20052;-61
2022/08/16 04:27:43;;;;;;;4.85;3.28;;;20.90;83.10;;;;;;4981798;28;20256;-61
2022/08/16 04:30:11;;;;;;;5.35;3.33;;;20.90;83.20;;;;;;4996727;28;20114;-60
2022/08/16 04:32:37;;;;;;;3.50;3.20;;;20.90;83.10;;;;;;4997666;28;20022;-61
2022/08/16 04:35:07;;;;;;;4.93;3.60;;;20.80;83.10;;;;;;4998714;28;20034;-60
2022/08/16 04:37:33;;;;;;;6.00;3.35;;;20.90;83.30;;;;;;4998781;28;20148;-60
2022/08/16 04:39:58;;;;;;;4.85;3.45;;;20.90;83.30;;;;;;4997095;28;20038;-60
2022/08/16 04:42:24;;;;;;;3.88;3.20;;;20.90;83.30;;;;;;5000336;28;20056;-60
2022/08/16 04:44:50;;;;;;;3.95;2.78;;;20.80;83.20;;;;;;5001077;28;20123;-61
2022/08/16 04:47:15;;;;;;;3.08;2.70;;;20.80;83.20;;;;;;5002281;28;20588;-60
2022/08/16 04:49:41;;;;;;;3.20;2.80;;;20.80;83.30;;;;;;4999494;28;21388;-61
2022/08/16 04:52:06;;;;;;;2.95;2.65;;;20.80;83.40;;;;;;4984503;28;20041;-60
2022/08/16 04:54:32;;;;;;;3.63;2.60;;;20.80;83.40;;;;;;5002094;28;20084;-60
2022/08/16 04:56:57;;;;;;;3.55;2.80;;;20.80;83.40;;;;;;5001769;28;20417;-61
2022/08/16 04:59:23;;;;;;;3.40;2.70;;;20.70;83.40;;;;;;5000583;28;21126;-60
2022/08/16 05:01:48;;;;;;;2.60;2.28;;;20.70;83.30;;;;;;4998859;28;20339;-60
2022/08/16 05:04:14;;;;;;;3.05;2.65;;;20.70;83.30;;;;;;4997523;28;20108;-61
2022/08/16 05:06:40;;;;;;;5.60;2.72;;;20.70;83.30;;;;;;4997922;28;20409;-61
2022/08/16 05:09:05;;;;;;;5.00;2.65;;;20.70;83.30;;;;;;5000417;28;20057;-60
2022/08/16 05:11:31;;;;;;;3.10;2.78;;;20.70;83.40;;;;;;5001805;28;20421;-60
2022/08/16 05:13:59;;;;;;;3.28;2.53;;;20.70;83.40;;;;;;4998381;28;20034;-60
2022/08/16 05:16:27;;;;;;;3.55;2.40;;;20.70;83.40;;;;;;5000981;28;20041;-60
2022/08/16 05:18:54;;;;;;;3.40;2.28;;;20.70;83.40;;;;;;4981221;28;20038;-60
2022/08/16 05:21:19;;;;;;;3.03;2.50;;;20.70;83.50;;;;;;5001062;28;20425;-61
2022/08/16 05:23:45;;;;;;;3.58;2.58;;;20.70;83.40;;;;;;5000569;28;20022;-60
2022/08/16 05:26:11;;;;;;;3.00;2.50;;;20.70;83.40;;;;;;4999041;28;20100;-60
2022/08/16 05:28:36;;;;;;;3.42;2.60;;;20.70;83.40;;;;;;4997627;28;20030;-61
2022/08/16 05:31:02;;;;;;;3.33;2.25;;;20.70;83.40;;;;;;4980933;28;20081;-61
2022/08/16 05:33:27;;;;;;;4.93;2.65;;;20.60;83.30;;;;;;4995963;28;20661;-60
2022/08/16 05:35:53;;;;;;;3.67;2.42;;;20.70;83.30;;;;;;4999871;28;20030;-61
2022/08/16 05:38:18;;;;;;;5.60;2.60;;;20.70;83.40;;;;;;4992460;28;20053;-60
2022/08/16 05:40:44;;;;;;;3.53;2.65;;;20.70;83.40;;;;;;4994794;28;20465;-61
2022/08/16 05:43:10;;;;;;;5.13;2.47;;;20.60;83.40;;;;;;4989842;28;20714;-60
2022/08/16 05:45:35;;;;;;;2.83;2.33;;;20.50;83.50;;;;;;4996231;28;20024;-60
2022/08/16 05:48:01;;;;;;;4.35;2.67;;;20.60;83.70;;;;;;4994123;28;20037;-60
2022/08/16 05:50:27;;;;;;;3.33;2.50;;;20.60;84.20;;;;;;4996046;28;20471;-60
2022/08/16 05:52:52;;;;;;;5.07;2.90;;;20.60;85.00;;;;;;4988679;28;20034;-61
2022/08/16 05:55:18;;;;;;;5.47;3.03;;;20.50;85.50;;;;;;4999458;28;20638;-61
2022/08/16 05:57:47;;;;;;;3.45;2.67;;;20.40;86.00;;;;;;4990944;28;20489;-62
2022/08/16 06:00:13;;;;;;;3.72;2.50;;;20.40;86.60;;;;;;4994403;28;20033;-61
2022/08/16 06:02:40;;;;;;;5.78;2.70;;;20.30;86.50;;;;;;5012321;28;20030;-61
2022/08/16 06:05:05;;;;;;;6.75;2.95;;;20.30;87.50;;;;;;4997125;28;20100;-61
2022/08/16 06:07:31;;;;;;;4.22;2.90;;;20.30;88.10;;;;;;4996859;28;20289;-61
2022/08/16 06:09:58;;;;;;;16.30;3.40;;;20.30;88.70;;;;;;4959393;28;20519;-61
2022/08/16 06:12:24;;;;;;;7.72;3.10;;;20.20;89.10;;;;;;4982826;28;20095;-61
2022/08/16 06:14:49;;;;;;;7.60;2.97;;;20.10;89.40;;;;;;4997608;28;20030;-61
2022/08/16 06:17:15;;;;;;;4.40;2.92;;;20.10;89.80;;;;;;5000483;28;20073;-61
2022/08/16 06:19:41;;;;;;;6.00;2.85;;;20.10;90.00;;;;;;5001042;28;20030;-61
2022/08/16 06:22:07;;;;;;;5.80;2.92;;;20.10;90.00;;;;;;5002329;28;20385;-61
2022/08/16 06:24:32;;;;;;;3.03;2.55;;;20.10;90.20;;;;;;4998870;28;20160;-61
2022/08/16 06:26:58;;;;;;;3.85;2.90;;;20.00;90.30;;;;;;4997055;28;20036;-60
2022/08/16 06:29:23;;;;;;;4.45;3.03;;;20.00;90.40;;;;;;4997338;28;20631;-61
2022/08/16 06:31:49;;;;;;;4.28;2.90;;;20.00;90.40;;;;;;4999051;28;20346;-61
2022/08/16 06:34:14;;;;;;;7.05;3.03;;;20.00;90.60;;;;;;4998710;28;20489;-60
2022/08/16 06:36:41;;;;;;;4.05;2.75;;;20.00;90.80;;;;;;5001168;28;20046;-61
2022/08/16 06:39:06;;;;;;;4.20;2.80;;;20.00;91.00;;;;;;4999926;28;20040;-61
2022/08/16 06:41:32;;;;;;;2.80;2.33;;;19.90;90.90;;;;;;4997255;28;20062;-61
2022/08/16 06:43:57;;;;;;;4.93;2.60;;;20.00;90.80;;;;;;4997943;28;20766;-62
2022/08/16 06:46:26;;;;;;;3.78;2.63;;;20.00;90.80;;;;;;4998864;28;20041;-61
2022/08/16 06:48:51;;;;;;;6.00;2.60;;;20.00;90.80;;;;;;4996607;28;20021;-61
2022/08/16 06:51:17;;;;;;;6.03;2.90;;;20.10;90.90;;;;;;5000598;28;20030;-61
2022/08/16 06:53:43;;;;;;;3.25;2.50;;;20.10;90.90;;;;;;4994494;28;20132;-61
2022/08/16 06:56:08;;;;;;;4.07;2.78;;;20.10;90.80;;;;;;4992983;28;20038;-61
2022/08/16 06:58:34;;;;;;;4.68;3.00;;;20.10;90.70;;;;;;4977150;28;20394;-61
2022/08/16 07:01:00;;;;;;;5.22;2.85;;;20.10;90.70;;;;;;4995717;28;20187;-61
2022/08/16 07:03:26;;;;;;;8.77;3.15;;;20.10;91.00;;;;;;4978907;28;20186;-61
2022/08/16 07:05:52;;;;;;;8.77;3.22;;;20.10;90.80;;;;;;4996629;28;20104;-61
2022/08/16 07:08:17;;;;;;;5.55;2.95;;;20.10;90.90;;;;;;4989274;28;20087;-61
2022/08/16 07:10:43;;;;;;;8.65;3.42;;;20.10;90.90;;;;;;4998778;28;20040;-61
2022/08/16 07:13:08;;;;;;;9.82;3.33;;;20.10;91.10;;;;;;4992246;28;20406;-61
2022/08/16 07:15:34;;;;;;;11.50;3.92;;;20.10;91.10;;;;;;4994491;28;20038;-67
2022/08/16 07:18:00;;;;;;;14.18;4.85;;;20.10;91.10;;;;;;4996257;28;20057;-61
2022/08/16 07:20:27;;;;;;;12.35;3.83;;;20.10;91.60;;;;;;4996645;28;20137;-60
2022/08/16 07:22:54;;;;;;;14.57;4.35;;;20.20;91.20;;;;;;4989994;28;20357;-61
2022/08/16 07:25:20;;;;;;;13.60;4.28;;;20.20;91.10;;;;;;5007706;28;20040;-61
2022/08/16 07:27:46;;;;;;;15.02;4.57;;;20.20;91.10;;;;;;4995893;28;20033;-61
2022/08/16 07:30:14;;;;;;;8.38;3.83;;;20.20;90.80;;;;;;5001156;28;20509;-62
2022/08/16 07:32:40;;;;;;;15.02;4.13;;;20.20;90.90;;;;;;4990718;28;20359;-61
2022/08/16 07:35:05;;;;;;;13.32;4.05;;;20.20;90.80;;;;;;4989537;28;20562;-61
2022/08/16 07:37:31;;;;;;;13.68;3.97;;;20.30;90.80;;;;;;4991239;28;20031;-61
2022/08/16 07:39:57;;;;;;;17.05;4.35;;;20.30;90.50;;;;;;4994846;28;20701;-61
2022/08/16 07:42:23;;;;;;;11.32;3.72;;;20.30;90.60;;;;;;4990579;28;20045;-61
2022/08/16 07:44:48;;;;;;;17.30;3.95;;;20.30;90.50;;;;;;4976676;28;20439;-61
2022/08/16 07:47:14;;;;;;;11.23;3.55;;;20.30;90.50;;;;;;4988806;28;20026;-61
2022/08/16 07:49:40;;;;;;;12.48;3.38;;;20.40;90.20;;;;;;4992683;28;20033;-63
2022/08/16 07:52:05;;;;;;;15.95;4.22;;;20.40;90.20;;;;;;4996403;28;20075;-61
2022/08/16 07:54:31;;;;;;;14.30;3.50;;;20.40;90.10;;;;;;4986758;28;20088;-61
2022/08/16 07:56:56;;;;;;;8.30;3.58;;;20.40;90.00;;;;;;4985224;28;21941;-61
2022/08/16 07:59:23;;;;;;;29.95;4.53;;;20.50;89.90;;;;;;4990713;28;20054;-61
2022/08/16 08:01:50;;;;;;;20.20;4.70;;;20.50;90.30;;;;;;4969576;28;20034;-61
2022/08/16 08:04:16;;;;;;;20.67;4.75;;;20.60;90.00;;;;;;4992808;28;20034;-62
2022/08/16 08:06:42;;;;;;;14.73;4.28;;;20.60;90.20;;;;;;4990702;28;20018;-62
2022/08/16 08:09:07;;;;;;;25.75;5.18;;;20.60;90.00;;;;;;4992765;28;20029;-61
2022/08/16 08:11:33;;;;;;;22.27;4.78;;;20.60;90.10;;;;;;4992513;28;20038;-62
2022/08/16 08:13:59;;;;;;;14.25;4.10;;;20.60;90.10;;;;;;4992260;28;20117;-61
2022/08/16 08:16:24;;;;;;;15.02;4.57;;;20.70;90.00;;;;;;4992923;28;20401;-61
2022/08/16 08:18:50;;;;;;;19.60;4.85;;;20.70;90.00;;;;;;5009190;28;20165;-61
2022/08/16 08:21:18;;;;;;;21.50;4.93;;;20.70;90.10;;;;;;4997469;28;20099;-61
2022/08/16 08:23:45;;;;;;;16.33;4.50;;;20.70;90.00;;;;;;4996485;28;20014;-61
2022/08/16 08:26:10;;;;;;;27.45;4.90;;;20.70;89.80;;;;;;4997964;28;20132;-62
2022/08/16 08:28:37;;;;;;;28.00;4.57;;;20.80;89.50;;;;;;4984368;28;20048;-61
2022/08/16 08:31:02;;;;;;;24.00;5.10;;;20.80;89.60;;;;;;4995396;28;20042;-61
2022/08/16 08:33:29;;;;;;;27.92;4.93;;;20.80;89.40;;;;;;5003132;28;20049;-61
2022/08/16 08:35:56;;;;;;;30.20;4.68;;;20.80;89.20;;;;;;4995926;28;20030;-61
2022/08/16 08:38:22;;;;;;;32.08;5.28;;;20.90;88.40;;;;;;4991675;28;20046;-61
2022/08/16 08:40:47;;;;;;;26.83;5.28;;;20.90;88.30;;;;;;4997395;28;20029;-61
2022/08/16 08:43:13;;;;;;;28.55;4.95;;;20.90;88.30;;;;;;4993233;28;20806;-61
2022/08/16 08:45:40;;;;;;;48.72;7.35;;;21.00;88.10;;;;;;4990093;28;20029;-61
2022/08/16 08:48:05;;;;;;;50.08;7.60;;;21.10;87.80;;;;;;4968241;28;20034;-61
2022/08/16 08:50:31;;;;;;;35.05;6.82;;;21.00;87.50;;;;;;4976998;28;20041;-61
2022/08/16 08:52:56;;;;;;;45.25;6.43;;;21.00;87.30;;;;;;4990080;28;20564;-61
2022/08/16 08:55:22;;;;;;;34.38;7.03;;;21.10;87.10;;;;;;4990717;28;20041;-61
2022/08/16 08:57:47;;;;;;;40.63;7.35;;;21.10;86.90;;;;;;4995069;28;20145;-61
2022/08/16 09:00:14;;;;;;;41.03;6.85;;;21.20;86.70;;;;;;4988535;28;20133;-61
2022/08/16 09:02:41;;;;;;;50.08;6.93;;;21.20;86.30;;;;;;4982634;28;20035;-61
2022/08/16 09:05:07;;;;;;;28.92;5.82;;;21.30;86.10;;;;;;4986115;28;20101;-61
2022/08/16 09:07:32;;;;;;;23.75;6.22;;;21.30;85.90;;;;;;4980115;28;20095;-61
2022/08/16 09:09:58;;;;;;;38.92;7.07;;;21.30;85.70;;;;;;4985546;28;20033;-61
2022/08/16 09:12:24;;;;;;;50.58;7.38;;;21.30;85.60;;;;;;4991079;28;20050;-61
2022/08/16 09:14:49;;;;;;;46.35;6.35;;;21.30;85.30;;;;;;4992196;28;20118;-62
2022/08/16 09:17:15;;;;;;;53.70;6.43;;;21.30;85.00;;;;;;4991539;28;20117;-61
2022/08/16 09:19:41;;;;;;;36.70;6.85;;;21.30;84.90;;;;;;4991715;28;20080;-61
2022/08/16 09:22:08;;;;;;;49.08;7.28;;;21.40;84.60;;;;;;4995194;28;20041;-61
2022/08/16 09:24:34;;;;;;;44.03;7.28;;;21.50;84.30;;;;;;4990962;28;20030;-61
2022/08/16 09:27:00;;;;;;;61.72;9.10;;;21.50;84.10;;;;;;5007677;28;20047;-61
2022/08/16 09:29:25;;;;;;;50.58;7.35;;;21.60;83.90;;;;;;4990795;28;20823;-61
2022/08/16 09:31:51;;;;;;;51.03;8.45;;;21.60;83.80;;;;;;4994650;28;20044;-61
2022/08/16 09:34:16;;;;;;;47.35;8.43;;;21.60;83.60;;;;;;4985738;28;20033;-61
2022/08/16 09:36:42;;;;;;;52.60;7.78;;;21.70;83.40;;;;;;4986465;28;20029;-61
2022/08/16 09:39:08;;;;;;;48.17;7.18;;;21.70;83.50;;;;;;4996219;28;20080;-61
2022/08/16 09:41:34;;;;;;;47.22;8.07;;;21.80;83.40;;;;;;4962252;28;20053;-61
2022/08/16 09:44:02;;;;;;;50.80;7.55;;;21.80;83.20;;;;;;4992592;28;20057;-62
2022/08/16 09:46:27;;;;;;;53.70;8.05;;;21.80;83.00;;;;;;4990590;28;22481;-62
2022/08/16 09:48:53;;;;;;;48.90;7.82;;;21.90;83.20;;;;;;5005137;28;20034;-61
2022/08/16 09:51:19;;;;;;;54.50;7.38;;;21.90;83.10;;;;;;4991987;28;20080;-61
2022/08/16 09:53:46;;;;;;;55.97;7.85;;;21.90;83.00;;;;;;4972784;28;20171;-61
2022/08/16 09:56:29;;;;;;;52.72;8.32;;;22.00;82.90;;;;;;4975738;28;20049;-61
2022/08/16 09:58:55;;;;;;;40.92;6.78;;;22.00;83.00;;;;;;4970762;28;20423;-61
2022/08/16 10:01:21;;;;;;;40.28;7.15;;;22.10;82.50;;;;;;5006100;28;20076;-61
2022/08/16 10:03:46;;;;;;;43.25;7.30;;;22.20;82.30;;;;;;4991765;28;20041;-61
2022/08/16 10:06:12;;;;;;;55.72;8.07;;;22.20;82.00;;;;;;4994868;28;20037;-61
2022/08/16 10:08:37;;;;;;;45.28;7.30;;;22.30;81.90;;;;;;4991695;28;20041;-61
2022/08/16 10:13:47;;;;;;;71.90;10.10;;;22.40;81.60;;;;;;4990704;28;20033;-61
2022/08/16 10:16:12;;;;;;;58.35;9.05;;;22.40;81.30;;;;;;4977130;28;20041;-61
2022/08/16 10:18:38;;;;;;;94.22;11.70;;;22.40;81.10;;;;;;4994230;28;20044;-61
2022/08/16 10:21:05;;;;;;;66.15;11.27;;;22.40;81.30;;;;;;4992040;28;20046;-61
2022/08/16 10:23:30;;;;;;;69.40;10.05;;;22.40;81.30;;;;;;4989811;28;20108;-61
2022/08/16 10:25:56;;;;;;;57.97;9.60;;;22.50;81.30;;;;;;4988079;28;20690;-61
2022/08/16 10:28:21;;;;;;;63.28;9.13;;;22.50;80.90;;;;;;4988911;28;20038;-61
2022/08/16 10:30:47;;;;;;;65.03;9.65;;;22.60;80.60;;;;;;4993537;28;20033;-61
2022/08/16 10:33:13;;;;;;;66.93;8.98;;;22.70;80.30;;;;;;4987429;28;20038;-61
2022/08/16 10:35:39;;;;;;;59.40;9.55;;;22.80;80.00;;;;;;4981884;28;20116;-61
2022/08/16 10:38:05;;;;;;;64.55;9.82;;;22.90;79.40;;;;;;4998722;28;20131;-61
2022/08/16 10:40:30;;;;;;;68.10;8.48;;;22.90;79.10;;;;;;4979223;28;20056;-61
2022/08/16 10:42:58;;;;;;;85.43;9.55;;;22.90;78.60;;;;;;4989021;28;20058;-61
2022/08/16 10:45:24;;;;;;;63.97;9.05;;;23.00;78.10;;;;;;5010035;28;20040;-60
2022/08/16 10:47:50;;;;;;;77.60;10.27;;;23.00;78.00;;;;;;4993823;28;20760;-61
2022/08/16 10:50:15;;;;;;;69.10;9.27;;;23.10;77.80;;;;;;4990973;28;20624;-60
2022/08/16 10:52:41;;;;;;;74.68;9.32;;;23.10;77.60;;;;;;4988419;28;20631;-60
2022/08/16 10:55:10;;;;;;;53.75;9.70;;;23.10;77.20;;;;;;4973248;28;20076;-61
2022/08/16 10:57:35;;;;;;;97.18;11.77;;;23.20;77.00;;;;;;4995623;28;21010;-61
2022/08/16 11:00:06;;;;;;;71.05;10.90;;;23.20;76.70;;;;;;4991471;28;20030;-61
2022/08/16 11:02:31;;;;;;;51.85;9.07;;;23.20;76.70;;;;;;4979182;28;20088;-61
2022/08/16 11:04:58;;;;;;;61.45;9.35;;;23.30;76.30;;;;;;4994875;28;20065;-61
2022/08/16 11:07:24;;;;;;;50.88;7.88;;;23.30;76.20;;;;;;4991093;28;20046;-61
2022/08/16 11:09:49;;;;;;;65.40;8.85;;;23.40;76.10;;;;;;4995374;28;20133;-61
2022/08/16 11:12:15;;;;;;;50.70;7.82;;;23.30;75.40;;;;;;4991689;28;20141;-61
2022/08/16 11:14:40;;;;;;;49.63;8.00;;;23.50;75.90;;;;;;4986527;28;20217;-61
2022/08/16 11:17:06;;;;;;;55.00;7.88;;;23.50;74.70;;;;;;4988713;28;20038;-61
2022/08/16 11:19:32;;;;;;;63.13;9.07;;;23.50;75.20;;;;;;5011152;28;20041;-61
2022/08/16 11:21:57;;;;;;;56.90;7.90;;;23.60;74.50;;;;;;4995072;28;20510;-61
2022/08/16 11:24:23;;;;;;;58.13;9.43;;;23.70;74.40;;;;;;4998340;28;20041;-61
2022/08/16 11:26:51;;;;;;;50.55;8.60;;;23.80;73.80;;;;;;4996528;28;20052;-61
2022/08/16 11:29:17;;;;;;;69.28;10.13;;;23.90;73.50;;;;;;4994911;28;20719;-61
2022/08/16 11:31:43;;;;;;;63.70;9.30;;;24.00;73.00;;;;;;4988505;28;20041;-60
2022/08/16 11:34:08;;;;;;;60.53;9.57;;;24.10;72.70;;;;;;4992271;28;20045;-61
2022/08/16 11:36:35;;;;;;;46.65;7.57;;;24.20;72.20;;;;;;4985242;28;20233;-61
2022/08/16 11:39:01;;;;;;;58.38;8.02;;;24.10;71.40;;;;;;4993360;28;20060;-61
2022/08/16 11:41:27;;;;;;;39.45;6.88;;;24.40;71.30;;;;;;4994821;28;20141;-61
2022/08/16 11:43:52;;;;;;;35.72;6.40;;;24.40;70.90;;;;;;4962621;28;20159;-61
2022/08/16 11:46:19;;;;;;;46.15;7.57;;;24.50;70.70;;;;;;4996792;28;20021;-61
2022/08/16 11:48:45;;;;;;;37.53;6.80;;;24.60;70.20;;;;;;4987288;28;20578;-63
2022/08/16 11:51:11;;;;;;;27.98;6.50;;;24.80;69.80;;;;;;4986785;28;20377;-61
2022/08/16 11:53:36;;;;;;;25.13;6.25;;;24.80;69.00;;;;;;4987952;28;20038;-61
2022/08/16 11:56:02;;;;;;;32.10;5.53;;;24.90;68.60;;;;;;4994484;28;20033;-61
2022/08/16 11:58:30;;;;;;;28.10;6.07;;;25.10;68.30;;;;;;5026712;28;20505;-61
2022/08/16 12:00:56;;;;;;;31.15;6.20;;;25.10;68.10;;;;;;4985023;28;20426;-61
2022/08/16 12:03:22;;;;;;;23.63;5.82;;;25.20;67.90;;;;;;4973184;28;20042;-61
2022/08/16 12:05:48;;;;;;;33.92;6.20;;;25.30;67.60;;;;;;4983536;28;20452;-62
2022/08/16 12:08:14;;;;;;;21.67;5.63;;;25.40;67.10;;;;;;4989371;28;20044;-61
2022/08/16 12:10:40;;;;;;;35.90;5.60;;;25.40;66.80;;;;;;4996789;28;20037;-61
2022/08/16 12:13:06;;;;;;;41.42;7.13;;;25.50;66.60;;;;;;4992362;28;20038;-61
2022/08/16 12:15:31;;;;;;;34.88;5.97;;;25.60;66.70;;;;;;4974091;28;20049;-62
2022/08/16 12:17:57;;;;;;;38.17;7.13;;;25.60;66.70;;;;;;4992380;28;20883;-61
2022/08/16 12:20:30;;;;;;;58.00;7.97;;;25.60;66.20;;;;;;4992657;28;20030;-62
2022/08/16 12:22:55;;;;;;;45.70;7.53;;;25.80;66.40;;;;;;4995949;28;20458;-62
2022/08/16 12:25:22;;;;;;;42.47;7.43;;;25.80;65.80;;;;;;4995195;28;20069;-62
2022/08/16 12:27:47;;;;;;;44.60;7.78;;;25.80;65.50;;;;;;4977054;28;20157;-61
2022/08/16 12:30:15;;;;;;;36.20;7.28;;;26.00;65.30;;;;;;4992199;28;20034;-61
2022/08/16 12:32:41;;;;;;;27.80;6.05;;;26.10;64.80;;;;;;5009660;28;20084;-61
2022/08/16 12:35:08;;;;;;;48.88;7.22;;;26.10;64.60;;;;;;4989957;28;20046;-61
2022/08/16 12:37:34;;;;;;;30.92;6.25;;;26.20;64.00;;;;;;4988124;28;20026;-61